Flight Track Log - Related Links

Times and Time Zones

All times are in EDT time to prevent confusion due to time zone crossing. See the ASQ5421 flight status page for this flight to view local times or setup timezone preferences in your user account.

Time Position Orientation Groundspeed Altitude Reporting Facility
EDT Latitude Longitude Course Direction KTS MPH feet Rate Location/Type
Fri 10:47:59 AM 33.6333 -84.4167 107° East 162 186 2,000  Level Atlanta TRACON
Fri 10:48:59 AM 33.6167 -84.3500 107° East 226 260 4,200 2,450 Climbing Atlanta TRACON
Fri 10:49:59 AM 33.5833 -84.2833 121° Southeast 245 282 6,900 2,047 Climbing Atlanta TRACON
Fri 10:51:49 AM 33.4600 -84.2778 178° South 286 329 10,000 1,482 Climbing Atlanta Center
Fri 10:52:49 AM 33.3850 -84.2750 178° South 286 329 11,100 1,300 Climbing Atlanta Center
Fri 10:53:49 AM 33.2972 -84.2525 168° South 306 352 12,600 1,450 Climbing Atlanta Center
Fri 10:54:49 AM 33.2056 -84.2275 167° South 330 380 14,000 1,500 Climbing Atlanta Center
Fri 10:55:49 AM 33.0992 -84.2000 168° South 343 395 15,600 1,600 Climbing Atlanta Center
Fri 10:56:49 AM 33.0011 -84.1725 167° South 354 407 17,200 1,400 Climbing Atlanta Center
Fri 10:57:49 AM 32.9072 -84.1378 163° South 354 407 18,400 1,100 Climbing Atlanta Center
Fri 10:58:49 AM 32.8111 -84.0981 161° South 359 413 19,400 1,000 Climbing Atlanta Center
Fri 10:59:49 AM 32.7108 -84.0586 162° South 364 419 20,400 1,000 Climbing Atlanta Center
Fri 11:00:49 AM 32.6108 -84.0167 161° South 374 430 21,400 1,000 Climbing Atlanta Center
Fri 11:01:49 AM 32.5083 -83.9747 161° South 380 437 22,400 1,000 Climbing Atlanta Center
Fri 11:02:49 AM 32.4061 -83.9306 160° South 385 443 23,400 1,050 Climbing Atlanta Center
Fri 11:03:49 AM 32.3058 -83.8914 162° South 385 443 24,500 850 Climbing Atlanta Center
Fri 11:04:49 AM 32.2036 -83.8500 161° South 385 443 25,100 550 Climbing Atlanta Center
Fri 11:05:49 AM 32.1033 -83.8083 161° South 385 443 25,600 500 Climbing Atlanta Center
Fri 11:06:49 AM 31.9967 -83.7644 161° South 385 443 26,100 470 Climbing Atlanta Center
Fri 11:07:44 AM 31.8986 -83.7222 160° South 390 449 26,500 470 Climbing Jacksonville Center
Fri 11:08:44 AM 31.7925 -83.6797 161° South 408 470 27,000 500 Climbing Jacksonville Center
Fri 11:09:44 AM 31.6861 -83.6347 160° South 413 475 27,500 550 Climbing Jacksonville Center
Fri 11:10:44 AM 31.5736 -83.5947 163° South 413 475 28,100 550 Climbing Jacksonville Center
Fri 11:11:44 AM 31.4653 -83.5528 162° South 413 475 28,600 450 Climbing Jacksonville Center
Fri 11:12:44 AM 31.3569 -83.5081 161° South 413 475 29,000 200 Climbing Jacksonville Center
Fri 11:13:44 AM 31.2467 -83.4661 162° South 413 475 29,000  Level Jacksonville Center
Fri 11:14:44 AM 31.1339 -83.4192 160° South 418 481 29,000  Level Jacksonville Center
Fri 11:15:44 AM 31.0319 -83.3436 148° Southeast 424 488 29,000  Level Jacksonville Center
Fri 11:16:44 AM 30.9300 -83.2608 145° Southeast 434 499 29,000 -450 Level Jacksonville Center
Fri 11:17:44 AM 30.8300 -83.1781 145° Southeast 439 505 28,100 -1,650 Descending Jacksonville Center
Fri 11:18:44 AM 30.7300 -83.0956 145° Southeast 444 511 25,700 -2,050 Descending Jacksonville Center
Fri 11:19:44 AM 30.6297 -83.0158 146° Southeast 444 511 24,000 -1,450 Descending Jacksonville Center
Fri 11:20:44 AM 30.5317 -82.9383 146° Southeast 444 511 22,800 -2,100 Descending Jacksonville Center
Fri 11:21:44 AM 30.4356 -82.8611 145° Southeast 433 498 19,800 -3,050 Descending Jacksonville Center
Fri 11:22:44 AM 30.3417 -82.7867 146° Southeast 427 491 16,700 -3,073 Descending Jacksonville Center
Fri 11:23:06 AM 30.3125 -82.7650 147° Southeast 386 444 15,600 -2,600 Descending Jacksonville Center
Fri 11:23:44 AM 30.2603 -82.7219 145° Southeast 391 450 14,100 -2,506 Descending Jacksonville Center
Fri 11:24:25 AM 30.2119 -82.6858 147° Southeast 312 359 12,300 -2,500 Descending Jacksonville Center
Fri 11:24:44 AM 30.1892 -82.6642 141° Southeast 346 398 11,600 -1,672 Descending Jacksonville Center
Fri 11:25:26 AM 30.1347 -82.6261 149° Southeast 296 341 10,600 -1,300 Descending Jacksonville Center
Fri 11:25:44 AM 30.1222 -82.6117 135° Southeast 312 359 10,300 -984 Descending Jacksonville Center
Fri 11:26:27 AM 30.0700 -82.5831 155° Southeast 279 321 9,600 -900 Descending Jacksonville Center
Fri 11:26:44 AM 30.0511 -82.5758 162° South 287 330 9,400 -1,180 Descending Jacksonville Center
Fri 11:27:28 AM 29.9947 -82.5689 174° South 276 318 8,400 -1,500 Descending Jacksonville Center
Fri 11:27:44 AM 29.9758 -82.5642 168° South 278 320 7,900 -1,770 Descending Jacksonville Center
Fri 11:28:29 AM 29.9236 -82.5547 171° South 252 290 6,600 -1,900 Descending Jacksonville Center
Fri 11:28:44 AM 29.9069 -82.5450 153° Southeast 273 314 6,000 -2,239 Descending Jacksonville Center
Fri 11:29:36 AM 29.8483 -82.5261 164° South 236 272 4,100 -1,626 Descending Jacksonville Center
Fri 11:30:31 AM 29.7961 -82.5097 165° South 212 244 3,100 -522 Descending Jacksonville Center
Fri 11:31:31 AM 29.7481 -82.4906 161° South 177 204 3,100 -522 Level Jacksonville Center
Fri 11:32:26 AM 29.7208 -82.4597 135° Southeast 142 163 2,100 -1,068 Descending Jacksonville Center
Fri 11:32:44 AM 29.7228 -82.4453 81° East 147 169 1,800 -295 Descending Jacksonville Center
Fri 11:33:27 AM 29.7122 -82.4144 112° Southeast 135 155 1,800 -58 Level Jacksonville Center
Fri 11:34:28 AM 29.7058 -82.3736 100° East 135 155 1,700 -344 Descending Jacksonville Center
Fri 11:35:29 AM 29.6994 -82.3331 100° East 124 143 1,100 -590 Descending Jacksonville Center

Login

Don't have an account? Register now (free) for customized features, flight alerts, and more!